Decoded Metar for KPUB (PUEBLO MEMORIAL in CO, USA) (IATA:PUB) | Meteo·Mobile Aviation Weather
aviador You're here:

KPUB Decoded Metar

PUEBLO MEMORIAL in CO, USA
Report Time2018-12-14 12:53:00
UTC Time2018-12-14 13:33:26
Flight Rules vfr VFR
Wind250° at 07 kt
W.Decomp.*RWY 26: 6.7 kt HW 2.2 kt LCW
RWY 17: 2.2 kt HW 6.7 kt RCW
W.Rank250° ranks 11
Current wind is above 250° avg. (6.8)
Visibility9999 m
Phenomena:N/A
Clouds:N/A
Expected CloudBase > 1,600 ft AGL from Temp-Dew spread
CeilingNone
Temp-9°C (ISA -15)
Dew Point-13°C (73% RH)
AAT-14.8°C
QNH1026 hPa
Density Alt2,448 ft
Elevation4,659 ft
Report Wrong Elevation
Raw Report
KPUB 141253Z 25007KT 10SM CLR M09/M13 A3030 RMK AO2 SLP303
T10891133=

Extra information for KPUB:More info

Metar Taf Metar & Taf Last 4 Metars F.Rules Stats Wind Profile Meteogram Temp Stats Airport Information Weather charts Add Link Nearby VenuesMetar ALERT Operation Metar Decoded Social comments

AIRNAV info for KPUB